sensor_id;sensor_type;location;lat;lon;timestamp;P1;durP1;ratioP1;P2;durP2;ratioP2
81544;SDS011;70990;50.618;7.346;2023-11-19T00:01:40;0.85;;;0.38;;
81544;SDS011;70990;50.618;7.346;2023-11-19T00:04:07;0.45;;;0.35;;
81544;SDS011;70990;50.618;7.346;2023-11-19T00:06:34;1.27;;;0.43;;
81544;SDS011;70990;50.618;7.346;2023-11-19T00:09:00;1.20;;;0.35;;
81544;SDS011;70990;50.618;7.346;2023-11-19T00:11:27;1.35;;;0.30;;
81544;SDS011;70990;50.618;7.346;2023-11-19T00:13:53;0.63;;;0.40;;
81544;SDS011;70990;50.618;7.346;2023-11-19T00:16:20;1.13;;;0.40;;
81544;SDS011;70990;50.618;7.346;2023-11-19T00:18:46;2.72;;;0.32;;
81544;SDS011;70990;50.618;7.346;2023-11-19T00:21:13;1.60;;;0.70;;
81544;SDS011;70990;50.618;7.346;2023-11-19T00:23:40;1.10;;;0.30;;
81544;SDS011;70990;50.618;7.346;2023-11-19T00:26:06;0.80;;;0.30;;
81544;SDS011;70990;50.618;7.346;2023-11-19T00:28:35;0.52;;;0.30;;
81544;SDS011;70990;50.618;7.346;2023-11-19T00:31:02;0.45;;;0.32;;
81544;SDS011;70990;50.618;7.346;2023-11-19T00:33:29;1.10;;;0.30;;
81544;SDS011;70990;50.618;7.346;2023-11-19T00:35:56;0.30;;;0.20;;
81544;SDS011;70990;50.618;7.346;2023-11-19T00:38:23;0.52;;;0.13;;
81544;SDS011;70990;50.618;7.346;2023-11-19T00:40:49;0.65;;;0.32;;
81544;SDS011;70990;50.618;7.346;2023-11-19T00:43:16;1.25;;;0.30;;
81544;SDS011;70990;50.618;7.346;2023-11-19T00:45:43;0.20;;;0.20;;
81544;SDS011;70990;50.618;7.346;2023-11-19T00:48:09;0.47;;;0.40;;
81544;SDS011;70990;50.618;7.346;2023-11-19T00:50:36;0.30;;;0.30;;
81544;SDS011;70990;50.618;7.346;2023-11-19T00:53:04;0.95;;;0.30;;
81544;SDS011;70990;50.618;7.346;2023-11-19T00:55:31;0.35;;;0.30;;
81544;SDS011;70990;50.618;7.346;2023-11-19T00:57:57;0.82;;;0.38;;
81544;SDS011;70990;50.618;7.346;2023-11-19T01:00:24;0.40;;;0.20;;
81544;SDS011;70990;50.618;7.346;2023-11-19T01:02:50;0.20;;;0.15;;
81544;SDS011;70990;50.618;7.346;2023-11-19T01:05:18;0.52;;;0.22;;
81544;SDS011;70990;50.618;7.346;2023-11-19T01:07:46;0.10;;;0.10;;
81544;SDS011;70990;50.618;7.346;2023-11-19T01:10:12;1.05;;;0.30;;
81544;SDS011;70990;50.618;7.346;2023-11-19T01:12:39;0.47;;;0.25;;
81544;SDS011;70990;50.618;7.346;2023-11-19T01:15:06;0.40;;;0.10;;
81544;SDS011;70990;50.618;7.346;2023-11-19T01:17:33;0.20;;;0.08;;
81544;SDS011;70990;50.618;7.346;2023-11-19T01:20:00;2.40;;;0.50;;
81544;SDS011;70990;50.618;7.346;2023-11-19T01:22:26;1.77;;;0.50;;
81544;SDS011;70990;50.618;7.346;2023-11-19T01:24:53;0.68;;;0.15;;
81544;SDS011;70990;50.618;7.346;2023-11-19T01:27:19;0.28;;;0.20;;
81544;SDS011;70990;50.618;7.346;2023-11-19T01:29:46;0.47;;;0.25;;
81544;SDS011;70990;50.618;7.346;2023-11-19T01:32:12;1.13;;;0.38;;
81544;SDS011;70990;50.618;7.346;2023-11-19T01:34:39;0.52;;;0.30;;
81544;SDS011;70990;50.618;7.346;2023-11-19T01:37:07;0.65;;;0.30;;
81544;SDS011;70990;50.618;7.346;2023-11-19T01:39:33;1.05;;;0.40;;
81544;SDS011;70990;50.618;7.346;2023-11-19T01:42:00;1.73;;;0.30;;
81544;SDS011;70990;50.618;7.346;2023-11-19T01:44:26;1.08;;;0.43;;
81544;SDS011;70990;50.618;7.346;2023-11-19T01:46:53;0.52;;;0.25;;
81544;SDS011;70990;50.618;7.346;2023-11-19T01:49:20;0.82;;;0.40;;
81544;SDS011;70990;50.618;7.346;2023-11-19T01:51:48;1.25;;;0.30;;
81544;SDS011;70990;50.618;7.346;2023-11-19T01:54:15;0.60;;;0.40;;
81544;SDS011;70990;50.618;7.346;2023-11-19T01:56:42;0.63;;;0.32;;
81544;SDS011;70990;50.618;7.346;2023-11-19T01:59:09;0.65;;;0.20;;
81544;SDS011;70990;50.618;7.346;2023-11-19T02:01:38;1.30;;;0.40;;
81544;SDS011;70990;50.618;7.346;2023-11-19T02:04:06;1.25;;;0.22;;
81544;SDS011;70990;50.618;7.346;2023-11-19T02:06:34;1.10;;;0.30;;
81544;SDS011;70990;50.618;7.346;2023-11-19T02:09:04;0.73;;;0.17;;
81544;SDS011;70990;50.618;7.346;2023-11-19T02:11:31;1.23;;;0.30;;
81544;SDS011;70990;50.618;7.346;2023-11-19T02:13:58;0.80;;;0.28;;
81544;SDS011;70990;50.618;7.346;2023-11-19T02:16:24;0.85;;;0.22;;
81544;SDS011;70990;50.618;7.346;2023-11-19T02:18:52;0.20;;;0.20;;
81544;SDS011;70990;50.618;7.346;2023-11-19T02:21:18;0.30;;;0.30;;
81544;SDS011;70990;50.618;7.346;2023-11-19T02:23:45;0.47;;;0.20;;
81544;SDS011;70990;50.618;7.346;2023-11-19T02:26:18;0.30;;;0.28;;
81544;SDS011;70990;50.618;7.346;2023-11-19T02:28:58;0.10;;;0.10;;
81544;SDS011;70990;50.618;7.346;2023-11-19T02:31:25;0.20;;;0.15;;
81544;SDS011;70990;50.618;7.346;2023-11-19T02:33:53;0.25;;;0.25;;
81544;SDS011;70990;50.618;7.346;2023-11-19T02:36:19;0.47;;;0.28;;
81544;SDS011;70990;50.618;7.346;2023-11-19T02:38:46;0.45;;;0.20;;
81544;SDS011;70990;50.618;7.346;2023-11-19T02:41:13;0.45;;;0.20;;
81544;SDS011;70990;50.618;7.346;2023-11-19T02:43:40;0.20;;;0.10;;
81544;SDS011;70990;50.618;7.346;2023-11-19T02:46:07;2.05;;;0.35;;
81544;SDS011;70990;50.618;7.346;2023-11-19T02:48:36;0.57;;;0.13;;
81544;SDS011;70990;50.618;7.346;2023-11-19T02:51:05;1.65;;;0.40;;
81544;SDS011;70990;50.618;7.346;2023-11-19T02:53:34;0.65;;;0.20;;
81544;SDS011;70990;50.618;7.346;2023-11-19T02:56:01;0.30;;;0.30;;
81544;SDS011;70990;50.618;7.346;2023-11-19T02:58:28;0.22;;;0.22;;
81544;SDS011;70990;50.618;7.346;2023-11-19T03:00:54;1.15;;;0.35;;
81544;SDS011;70990;50.618;7.346;2023-11-19T03:03:21;0.95;;;0.30;;
81544;SDS011;70990;50.618;7.346;2023-11-19T03:05:48;0.20;;;0.20;;
81544;SDS011;70990;50.618;7.346;2023-11-19T03:08:15;1.05;;;0.45;;
81544;SDS011;70990;50.618;7.346;2023-11-19T03:10:45;0.60;;;0.20;;
81544;SDS011;70990;50.618;7.346;2023-11-19T03:13:12;0.95;;;0.30;;
81544;SDS011;70990;50.618;7.346;2023-11-19T03:15:40;0.20;;;0.20;;
81544;SDS011;70990;50.618;7.346;2023-11-19T03:18:07;1.20;;;0.20;;
81544;SDS011;70990;50.618;7.346;2023-11-19T03:20:34;0.50;;;0.30;;
81544;SDS011;70990;50.618;7.346;2023-11-19T03:23:00;1.50;;;0.40;;
81544;SDS011;70990;50.618;7.346;2023-11-19T03:25:27;3.15;;;0.35;;
81544;SDS011;70990;50.618;7.346;2023-11-19T03:27:54;1.70;;;0.52;;
81544;SDS011;70990;50.618;7.346;2023-11-19T03:30:20;0.60;;;0.35;;
81544;SDS011;70990;50.618;7.346;2023-11-19T03:32:59;0.30;;;0.30;;
81544;SDS011;70990;50.618;7.346;2023-11-19T03:35:26;1.45;;;0.30;;
81544;SDS011;70990;50.618;7.346;2023-11-19T03:37:53;1.42;;;0.28;;
81544;SDS011;70990;50.618;7.346;2023-11-19T03:40:20;0.40;;;0.32;;
81544;SDS011;70990;50.618;7.346;2023-11-19T03:42:46;0.63;;;0.32;;
81544;SDS011;70990;50.618;7.346;2023-11-19T03:45:13;0.17;;;0.17;;
81544;SDS011;70990;50.618;7.346;2023-11-19T03:47:39;0.20;;;0.20;;
81544;SDS011;70990;50.618;7.346;2023-11-19T03:50:06;0.65;;;0.30;;
81544;SDS011;70990;50.618;7.346;2023-11-19T03:52:34;2.35;;;0.52;;
81544;SDS011;70990;50.618;7.346;2023-11-19T03:55:09;1.48;;;0.40;;
81544;SDS011;70990;50.618;7.346;2023-11-19T03:57:36;0.70;;;0.25;;
81544;SDS011;70990;50.618;7.346;2023-11-19T04:00:03;0.65;;;0.28;;
81544;SDS011;70990;50.618;7.346;2023-11-19T04:02:38;1.75;;;0.60;;
81544;SDS011;70990;50.618;7.346;2023-11-19T04:05:05;1.02;;;0.40;;
81544;SDS011;70990;50.618;7.346;2023-11-19T04:07:32;1.65;;;0.50;;
81544;SDS011;70990;50.618;7.346;2023-11-19T04:09:59;1.08;;;0.20;;
81544;SDS011;70990;50.618;7.346;2023-11-19T04:12:26;0.35;;;0.30;;
81544;SDS011;70990;50.618;7.346;2023-11-19T04:14:52;1.23;;;0.30;;
81544;SDS011;70990;50.618;7.346;2023-11-19T04:17:22;0.20;;;0.20;;
81544;SDS011;70990;50.618;7.346;2023-11-19T04:19:48;0.52;;;0.22;;
81544;SDS011;70990;50.618;7.346;2023-11-19T04:22:15;2.50;;;0.50;;
81544;SDS011;70990;50.618;7.346;2023-11-19T04:24:42;1.25;;;0.40;;
81544;SDS011;70990;50.618;7.346;2023-11-19T04:27:09;1.45;;;0.50;;
81544;SDS011;70990;50.618;7.346;2023-11-19T04:29:35;2.33;;;0.60;;
81544;SDS011;70990;50.618;7.346;2023-11-19T04:32:02;3.53;;;0.35;;
81544;SDS011;70990;50.618;7.346;2023-11-19T04:34:28;2.13;;;0.40;;
81544;SDS011;70990;50.618;7.346;2023-11-19T04:36:55;1.60;;;0.35;;
81544;SDS011;70990;50.618;7.346;2023-11-19T04:39:22;1.08;;;0.47;;
81544;SDS011;70990;50.618;7.346;2023-11-19T04:41:49;3.03;;;0.57;;
81544;SDS011;70990;50.618;7.346;2023-11-19T04:44:18;1.63;;;0.45;;
81544;SDS011;70990;50.618;7.346;2023-11-19T04:46:45;2.28;;;0.93;;
81544;SDS011;70990;50.618;7.346;2023-11-19T04:49:13;1.40;;;0.38;;
81544;SDS011;70990;50.618;7.346;2023-11-19T04:51:40;3.13;;;0.35;;
81544;SDS011;70990;50.618;7.346;2023-11-19T04:54:07;3.05;;;0.52;;
81544;SDS011;70990;50.618;7.346;2023-11-19T04:56:37;2.53;;;0.63;;
81544;SDS011;70990;50.618;7.346;2023-11-19T04:59:04;3.90;;;0.98;;
81544;SDS011;70990;50.618;7.346;2023-11-19T05:01:31;0.77;;;0.35;;
81544;SDS011;70990;50.618;7.346;2023-11-19T05:03:58;1.08;;;0.50;;
81544;SDS011;70990;50.618;7.346;2023-11-19T05:06:28;4.50;;;0.73;;
81544;SDS011;70990;50.618;7.346;2023-11-19T05:08:58;2.83;;;0.82;;
81544;SDS011;70990;50.618;7.346;2023-11-19T05:11:29;4.45;;;0.80;;
81544;SDS011;70990;50.618;7.346;2023-11-19T05:13:56;3.60;;;0.77;;
81544;SDS011;70990;50.618;7.346;2023-11-19T05:16:22;4.57;;;1.00;;
81544;SDS011;70990;50.618;7.346;2023-11-19T05:18:50;6.00;;;1.27;;
81544;SDS011;70990;50.618;7.346;2023-11-19T05:21:17;5.65;;;0.90;;
81544;SDS011;70990;50.618;7.346;2023-11-19T05:23:43;6.57;;;1.23;;
81544;SDS011;70990;50.618;7.346;2023-11-19T05:26:16;4.28;;;1.05;;
81544;SDS011;70990;50.618;7.346;2023-11-19T05:28:44;6.95;;;1.20;;
81544;SDS011;70990;50.618;7.346;2023-11-19T05:31:10;3.65;;;1.23;;
81544;SDS011;70990;50.618;7.346;2023-11-19T05:33:37;6.15;;;1.10;;
81544;SDS011;70990;50.618;7.346;2023-11-19T05:36:04;6.43;;;1.33;;
81544;SDS011;70990;50.618;7.346;2023-11-19T05:38:31;3.72;;;1.00;;
81544;SDS011;70990;50.618;7.346;2023-11-19T05:40:58;5.30;;;0.80;;
81544;SDS011;70990;50.618;7.346;2023-11-19T05:43:24;4.95;;;0.85;;
81544;SDS011;70990;50.618;7.346;2023-11-19T05:45:51;4.65;;;0.88;;
81544;SDS011;70990;50.618;7.346;2023-11-19T05:48:17;2.42;;;0.65;;
81544;SDS011;70990;50.618;7.346;2023-11-19T05:50:44;4.20;;;1.10;;
81544;SDS011;70990;50.618;7.346;2023-11-19T05:53:11;2.60;;;0.60;;
81544;SDS011;70990;50.618;7.346;2023-11-19T05:55:37;7.32;;;1.40;;
81544;SDS011;70990;50.618;7.346;2023-11-19T05:58:04;6.43;;;1.52;;
81544;SDS011;70990;50.618;7.346;2023-11-19T06:00:30;4.13;;;1.00;;
81544;SDS011;70990;50.618;7.346;2023-11-19T06:02:57;3.00;;;0.77;;
81544;SDS011;70990;50.618;7.346;2023-11-19T06:05:23;7.80;;;1.42;;
81544;SDS011;70990;50.618;7.346;2023-11-19T06:07:50;8.10;;;1.17;;
81544;SDS011;70990;50.618;7.346;2023-11-19T06:10:16;5.55;;;1.00;;
81544;SDS011;70990;50.618;7.346;2023-11-19T06:12:44;8.27;;;0.95;;
81544;SDS011;70990;50.618;7.346;2023-11-19T06:15:11;5.50;;;1.00;;
81544;SDS011;70990;50.618;7.346;2023-11-19T06:17:38;6.25;;;1.17;;
81544;SDS011;70990;50.618;7.346;2023-11-19T06:20:05;5.70;;;1.15;;
81544;SDS011;70990;50.618;7.346;2023-11-19T06:22:34;9.07;;;1.75;;
81544;SDS011;70990;50.618;7.346;2023-11-19T06:25:00;8.73;;;2.00;;
81544;SDS011;70990;50.618;7.346;2023-11-19T06:27:27;4.50;;;1.00;;
81544;SDS011;70990;50.618;7.346;2023-11-19T06:29:54;7.05;;;1.48;;
81544;SDS011;70990;50.618;7.346;2023-11-19T06:32:20;6.30;;;1.35;;
81544;SDS011;70990;50.618;7.346;2023-11-19T06:34:47;8.43;;;1.38;;
81544;SDS011;70990;50.618;7.346;2023-11-19T06:37:13;9.73;;;3.33;;
81544;SDS011;70990;50.618;7.346;2023-11-19T06:39:40;6.93;;;1.20;;
81544;SDS011;70990;50.618;7.346;2023-11-19T06:42:06;9.65;;;1.63;;
81544;SDS011;70990;50.618;7.346;2023-11-19T06:44:33;8.20;;;1.67;;
81544;SDS011;70990;50.618;7.346;2023-11-19T06:46:59;4.72;;;1.15;;
81544;SDS011;70990;50.618;7.346;2023-11-19T06:49:26;9.05;;;1.20;;
81544;SDS011;70990;50.618;7.346;2023-11-19T06:51:53;10.48;;;1.70;;
81544;SDS011;70990;50.618;7.346;2023-11-19T06:54:19;5.50;;;1.20;;
81544;SDS011;70990;50.618;7.346;2023-11-19T06:56:46;7.68;;;1.25;;
81544;SDS011;70990;50.618;7.346;2023-11-19T06:59:14;5.65;;;1.42;;
81544;SDS011;70990;50.618;7.346;2023-11-19T07:01:40;4.50;;;0.90;;
81544;SDS011;70990;50.618;7.346;2023-11-19T07:04:07;7.53;;;1.15;;
81544;SDS011;70990;50.618;7.346;2023-11-19T07:06:33;6.00;;;1.23;;
81544;SDS011;70990;50.618;7.346;2023-11-19T07:09:01;6.68;;;1.58;;
81544;SDS011;70990;50.618;7.346;2023-11-19T07:11:29;8.63;;;1.40;;
81544;SDS011;70990;50.618;7.346;2023-11-19T07:13:55;7.50;;;1.52;;
81544;SDS011;70990;50.618;7.346;2023-11-19T07:16:22;9.20;;;1.65;;
81544;SDS011;70990;50.618;7.346;2023-11-19T07:18:48;9.68;;;1.27;;
81544;SDS011;70990;50.618;7.346;2023-11-19T07:21:15;12.73;;;1.63;;
81544;SDS011;70990;50.618;7.346;2023-11-19T07:23:42;7.20;;;1.30;;
81544;SDS011;70990;50.618;7.346;2023-11-19T07:26:08;7.88;;;1.25;;
81544;SDS011;70990;50.618;7.346;2023-11-19T07:28:35;8.90;;;1.13;;
81544;SDS011;70990;50.618;7.346;2023-11-19T07:31:01;9.82;;;1.52;;
81544;SDS011;70990;50.618;7.346;2023-11-19T07:33:28;9.43;;;1.17;;
81544;SDS011;70990;50.618;7.346;2023-11-19T07:35:54;10.32;;;1.50;;
81544;SDS011;70990;50.618;7.346;2023-11-19T07:38:21;8.15;;;1.30;;
81544;SDS011;70990;50.618;7.346;2023-11-19T07:40:48;6.78;;;1.35;;
81544;SDS011;70990;50.618;7.346;2023-11-19T07:43:17;8.65;;;1.70;;
81544;SDS011;70990;50.618;7.346;2023-11-19T07:45:44;7.20;;;1.13;;
81544;SDS011;70990;50.618;7.346;2023-11-19T07:48:10;8.85;;;1.50;;
81544;SDS011;70990;50.618;7.346;2023-11-19T07:50:37;11.13;;;1.40;;
81544;SDS011;70990;50.618;7.346;2023-11-19T07:53:04;4.63;;;1.70;;
81544;SDS011;70990;50.618;7.346;2023-11-19T07:55:30;6.30;;;1.05;;
81544;SDS011;70990;50.618;7.346;2023-11-19T07:57:58;7.53;;;1.83;;
81544;SDS011;70990;50.618;7.346;2023-11-19T08:00:25;7.05;;;1.17;;
81544;SDS011;70990;50.618;7.346;2023-11-19T08:02:51;8.13;;;1.65;;
81544;SDS011;70990;50.618;7.346;2023-11-19T08:05:18;7.13;;;1.35;;
81544;SDS011;70990;50.618;7.346;2023-11-19T08:07:45;7.38;;;1.30;;
81544;SDS011;70990;50.618;7.346;2023-11-19T08:10:13;12.55;;;1.73;;
81544;SDS011;70990;50.618;7.346;2023-11-19T08:12:39;10.43;;;1.60;;
81544;SDS011;70990;50.618;7.346;2023-11-19T08:15:06;7.88;;;1.55;;
81544;SDS011;70990;50.618;7.346;2023-11-19T08:17:33;5.18;;;1.45;;
81544;SDS011;70990;50.618;7.346;2023-11-19T08:20:00;7.18;;;1.23;;
81544;SDS011;70990;50.618;7.346;2023-11-19T08:22:26;9.07;;;1.20;;
81544;SDS011;70990;50.618;7.346;2023-11-19T08:24:53;6.07;;;1.25;;
81544;SDS011;70990;50.618;7.346;2023-11-19T08:27:19;6.45;;;1.27;;
81544;SDS011;70990;50.618;7.346;2023-11-19T08:29:46;9.50;;;1.45;;
81544;SDS011;70990;50.618;7.346;2023-11-19T08:32:12;5.88;;;1.23;;
81544;SDS011;70990;50.618;7.346;2023-11-19T08:34:39;11.40;;;1.23;;
81544;SDS011;70990;50.618;7.346;2023-11-19T08:37:06;14.77;;;1.75;;
81544;SDS011;70990;50.618;7.346;2023-11-19T08:39:32;6.75;;;1.17;;
81544;SDS011;70990;50.618;7.346;2023-11-19T08:41:59;7.30;;;1.52;;
81544;SDS011;70990;50.618;7.346;2023-11-19T08:44:26;5.95;;;1.48;;
81544;SDS011;70990;50.618;7.346;2023-11-19T08:46:53;10.43;;;1.35;;
81544;SDS011;70990;50.618;7.346;2023-11-19T08:49:20;8.20;;;1.38;;
81544;SDS011;70990;50.618;7.346;2023-11-19T08:51:46;11.10;;;2.03;;
81544;SDS011;70990;50.618;7.346;2023-11-19T08:54:12;17.90;;;1.85;;
81544;SDS011;70990;50.618;7.346;2023-11-19T08:56:39;9.88;;;1.48;;
81544;SDS011;70990;50.618;7.346;2023-11-19T08:59:06;11.43;;;1.88;;
81544;SDS011;70990;50.618;7.346;2023-11-19T09:01:33;12.80;;;1.67;;
81544;SDS011;70990;50.618;7.346;2023-11-19T09:03:59;6.35;;;1.30;;
81544;SDS011;70990;50.618;7.346;2023-11-19T09:06:27;21.55;;;1.90;;
81544;SDS011;70990;50.618;7.346;2023-11-19T09:08:58;10.02;;;1.35;;
81544;SDS011;70990;50.618;7.346;2023-11-19T09:11:25;9.65;;;0.90;;
81544;SDS011;70990;50.618;7.346;2023-11-19T09:13:52;12.60;;;1.98;;
81544;SDS011;70990;50.618;7.346;2023-11-19T09:16:27;8.98;;;1.52;;
81544;SDS011;70990;50.618;7.346;2023-11-19T09:18:53;11.75;;;1.73;;
81544;SDS011;70990;50.618;7.346;2023-11-19T09:21:20;10.88;;;1.70;;
81544;SDS011;70990;50.618;7.346;2023-11-19T09:23:47;9.55;;;1.48;;
81544;SDS011;70990;50.618;7.346;2023-11-19T09:26:14;7.70;;;1.60;;
81544;SDS011;70990;50.618;7.346;2023-11-19T09:28:41;11.48;;;1.42;;
81544;SDS011;70990;50.618;7.346;2023-11-19T09:31:17;11.25;;;1.48;;
81544;SDS011;70990;50.618;7.346;2023-11-19T09:33:44;4.68;;;1.15;;
81544;SDS011;70990;50.618;7.346;2023-11-19T09:36:14;14.30;;;1.90;;
81544;SDS011;70990;50.618;7.346;2023-11-19T09:38:49;6.78;;;1.55;;
81544;SDS011;70990;50.618;7.346;2023-11-19T09:41:16;8.13;;;2.10;;
81544;SDS011;70990;50.618;7.346;2023-11-19T09:43:54;7.70;;;1.40;;
81544;SDS011;70990;50.618;7.346;2023-11-19T09:46:21;14.40;;;1.65;;
81544;SDS011;70990;50.618;7.346;2023-11-19T09:48:54;9.98;;;1.38;;
81544;SDS011;70990;50.618;7.346;2023-11-19T09:51:24;8.30;;;2.08;;
81544;SDS011;70990;50.618;7.346;2023-11-19T09:53:50;6.88;;;1.17;;
81544;SDS011;70990;50.618;7.346;2023-11-19T09:56:17;9.63;;;1.98;;
81544;SDS011;70990;50.618;7.346;2023-11-19T09:58:45;9.25;;;1.55;;
81544;SDS011;70990;50.618;7.346;2023-11-19T10:01:11;11.68;;;2.42;;
81544;SDS011;70990;50.618;7.346;2023-11-19T10:03:41;13.02;;;1.90;;
81544;SDS011;70990;50.618;7.346;2023-11-19T10:06:08;10.60;;;1.50;;
81544;SDS011;70990;50.618;7.346;2023-11-19T10:08:38;11.77;;;1.33;;
81544;SDS011;70990;50.618;7.346;2023-11-19T10:11:06;10.15;;;1.75;;
81544;SDS011;70990;50.618;7.346;2023-11-19T10:13:34;8.48;;;1.80;;
81544;SDS011;70990;50.618;7.346;2023-11-19T10:16:03;8.75;;;1.33;;
81544;SDS011;70990;50.618;7.346;2023-11-19T10:18:33;12.35;;;1.50;;
81544;SDS011;70990;50.618;7.346;2023-11-19T10:21:00;9.55;;;1.90;;
81544;SDS011;70990;50.618;7.346;2023-11-19T10:23:27;13.98;;;1.45;;
81544;SDS011;70990;50.618;7.346;2023-11-19T10:25:54;6.35;;;1.23;;
81544;SDS011;70990;50.618;7.346;2023-11-19T10:28:41;17.20;;;2.40;;
81544;SDS011;70990;50.618;7.346;2023-11-19T10:31:08;15.27;;;2.22;;
81544;SDS011;70990;50.618;7.346;2023-11-19T10:33:34;6.50;;;0.98;;
81544;SDS011;70990;50.618;7.346;2023-11-19T10:36:02;12.82;;;3.05;;
81544;SDS011;70990;50.618;7.346;2023-11-19T10:38:30;13.63;;;1.80;;
81544;SDS011;70990;50.618;7.346;2023-11-19T10:40:57;9.52;;;1.98;;
81544;SDS011;70990;50.618;7.346;2023-11-19T10:43:24;7.70;;;1.83;;
81544;SDS011;70990;50.618;7.346;2023-11-19T10:45:51;15.00;;;1.88;;
81544;SDS011;70990;50.618;7.346;2023-11-19T10:48:18;15.85;;;2.25;;
81544;SDS011;70990;50.618;7.346;2023-11-19T10:50:45;9.93;;;2.05;;
81544;SDS011;70990;50.618;7.346;2023-11-19T10:53:16;11.80;;;2.28;;
81544;SDS011;70990;50.618;7.346;2023-11-19T10:55:47;8.52;;;1.40;;
81544;SDS011;70990;50.618;7.346;2023-11-19T10:58:15;9.30;;;1.35;;
81544;SDS011;70990;50.618;7.346;2023-11-19T11:00:52;11.02;;;1.60;;
81544;SDS011;70990;50.618;7.346;2023-11-19T11:03:22;8.82;;;2.33;;
81544;SDS011;70990;50.618;7.346;2023-11-19T11:05:52;13.10;;;1.83;;
81544;SDS011;70990;50.618;7.346;2023-11-19T11:08:23;8.65;;;1.58;;
81544;SDS011;70990;50.618;7.346;2023-11-19T11:10:54;12.25;;;2.88;;
81544;SDS011;70990;50.618;7.346;2023-11-19T11:13:24;10.52;;;1.42;;
81544;SDS011;70990;50.618;7.346;2023-11-19T11:15:51;6.60;;;1.83;;
81544;SDS011;70990;50.618;7.346;2023-11-19T11:18:18;8.77;;;1.90;;
81544;SDS011;70990;50.618;7.346;2023-11-19T11:20:45;15.80;;;1.70;;
81544;SDS011;70990;50.618;7.346;2023-11-19T11:28:52;8.05;;;1.45;;
81544;SDS011;70990;50.618;7.346;2023-11-19T11:39:32;12.02;;;1.90;;
81544;SDS011;70990;50.618;7.346;2023-11-19T11:42:42;9.57;;;1.23;;
81544;SDS011;70990;50.618;7.346;2023-11-19T11:45:02;8.75;;;1.17;;
81544;SDS011;70990;50.618;7.346;2023-11-19T11:50:09;11.25;;;1.98;;
81544;SDS011;70990;50.618;7.346;2023-11-19T11:57:54;6.60;;;1.42;;
81544;SDS011;70990;50.618;7.346;2023-11-19T12:02:55;11.65;;;1.60;;
81544;SDS011;70990;50.618;7.346;2023-11-19T12:05:23;5.57;;;1.13;;
81544;SDS011;70990;50.618;7.346;2023-11-19T12:07:56;11.07;;;1.75;;
81544;SDS011;70990;50.618;7.346;2023-11-19T12:10:30;9.02;;;2.20;;
81544;SDS011;70990;50.618;7.346;2023-11-19T12:12:59;6.90;;;1.40;;
81544;SDS011;70990;50.618;7.346;2023-11-19T12:15:27;10.10;;;1.73;;
81544;SDS011;70990;50.618;7.346;2023-11-19T12:17:54;11.95;;;2.15;;
81544;SDS011;70990;50.618;7.346;2023-11-19T12:20:22;5.68;;;1.35;;
81544;SDS011;70990;50.618;7.346;2023-11-19T12:22:53;12.73;;;2.25;;
81544;SDS011;70990;50.618;7.346;2023-11-19T12:25:20;5.57;;;0.90;;
81544;SDS011;70990;50.618;7.346;2023-11-19T12:27:47;15.82;;;2.30;;
81544;SDS011;70990;50.618;7.346;2023-11-19T12:30:21;9.40;;;1.17;;
81544;SDS011;70990;50.618;7.346;2023-11-19T12:32:49;8.60;;;1.60;;
81544;SDS011;70990;50.618;7.346;2023-11-19T12:35:15;9.75;;;1.45;;
81544;SDS011;70990;50.618;7.346;2023-11-19T12:37:43;13.18;;;1.55;;
81544;SDS011;70990;50.618;7.346;2023-11-19T12:40:11;8.65;;;2.05;;
81544;SDS011;70990;50.618;7.346;2023-11-19T12:42:42;9.68;;;1.17;;
81544;SDS011;70990;50.618;7.346;2023-11-19T12:45:08;8.25;;;1.90;;
81544;SDS011;70990;50.618;7.346;2023-11-19T12:47:35;10.10;;;1.77;;
81544;SDS011;70990;50.618;7.346;2023-11-19T12:50:01;8.35;;;1.50;;
81544;SDS011;70990;50.618;7.346;2023-11-19T12:52:28;5.20;;;1.00;;
81544;SDS011;70990;50.618;7.346;2023-11-19T12:54:54;10.57;;;1.35;;
81544;SDS011;70990;50.618;7.346;2023-11-19T12:57:21;5.57;;;1.23;;
81544;SDS011;70990;50.618;7.346;2023-11-19T13:00:03;6.90;;;1.88;;
81544;SDS011;70990;50.618;7.346;2023-11-19T13:02:46;6.60;;;1.20;;
81544;SDS011;70990;50.618;7.346;2023-11-19T13:05:23;16.30;;;1.65;;
81544;SDS011;70990;50.618;7.346;2023-11-19T13:08:04;6.80;;;1.50;;
81544;SDS011;70990;50.618;7.346;2023-11-19T13:10:32;13.32;;;2.22;;
81544;SDS011;70990;50.618;7.346;2023-11-19T13:15:34;8.25;;;1.45;;
81544;SDS011;70990;50.618;7.346;2023-11-19T13:18:02;10.48;;;1.50;;
81544;SDS011;70990;50.618;7.346;2023-11-19T13:20:29;11.05;;;1.55;;
81544;SDS011;70990;50.618;7.346;2023-11-19T13:23:00;9.25;;;1.50;;
81544;SDS011;70990;50.618;7.346;2023-11-19T13:25:28;8.63;;;1.42;;
81544;SDS011;70990;50.618;7.346;2023-11-19T13:27:55;9.63;;;1.48;;
81544;SDS011;70990;50.618;7.346;2023-11-19T13:30:23;11.23;;;1.50;;
81544;SDS011;70990;50.618;7.346;2023-11-19T13:32:53;10.90;;;2.40;;
81544;SDS011;70990;50.618;7.346;2023-11-19T13:35:21;10.05;;;2.22;;
81544;SDS011;70990;50.618;7.346;2023-11-19T13:37:47;8.60;;;1.30;;
81544;SDS011;70990;50.618;7.346;2023-11-19T13:40:14;6.68;;;1.17;;
81544;SDS011;70990;50.618;7.346;2023-11-19T13:42:41;7.60;;;1.52;;
81544;SDS011;70990;50.618;7.346;2023-11-19T13:45:10;11.95;;;1.95;;
81544;SDS011;70990;50.618;7.346;2023-11-19T13:47:39;9.70;;;1.60;;
81544;SDS011;70990;50.618;7.346;2023-11-19T13:50:09;6.80;;;1.48;;
81544;SDS011;70990;50.618;7.346;2023-11-19T13:52:39;14.23;;;1.67;;
81544;SDS011;70990;50.618;7.346;2023-11-19T13:55:08;8.50;;;1.67;;
81544;SDS011;70990;50.618;7.346;2023-11-19T13:57:36;7.57;;;1.98;;
81544;SDS011;70990;50.618;7.346;2023-11-19T14:00:03;12.93;;;1.98;;
81544;SDS011;70990;50.618;7.346;2023-11-19T14:02:34;7.30;;;1.60;;
81544;SDS011;70990;50.618;7.346;2023-11-19T14:05:00;6.95;;;1.23;;
81544;SDS011;70990;50.618;7.346;2023-11-19T14:07:27;7.35;;;1.98;;
81544;SDS011;70990;50.618;7.346;2023-11-19T14:09:53;8.55;;;1.15;;
81544;SDS011;70990;50.618;7.346;2023-11-19T14:12:20;7.25;;;1.85;;
81544;SDS011;70990;50.618;7.346;2023-11-19T14:14:47;6.07;;;1.45;;
81544;SDS011;70990;50.618;7.346;2023-11-19T14:17:14;7.90;;;1.48;;
81544;SDS011;70990;50.618;7.346;2023-11-19T14:19:41;9.00;;;1.35;;
81544;SDS011;70990;50.618;7.346;2023-11-19T14:22:08;6.65;;;1.25;;
81544;SDS011;70990;50.618;7.346;2023-11-19T14:24:35;8.30;;;1.60;;
81544;SDS011;70990;50.618;7.346;2023-11-19T14:27:02;9.00;;;1.52;;
81544;SDS011;70990;50.618;7.346;2023-11-19T14:29:28;11.13;;;1.75;;
81544;SDS011;70990;50.618;7.346;2023-11-19T14:31:55;9.50;;;1.30;;
81544;SDS011;70990;50.618;7.346;2023-11-19T14:34:22;5.53;;;1.20;;
81544;SDS011;70990;50.618;7.346;2023-11-19T14:36:49;11.93;;;1.55;;
81544;SDS011;70990;50.618;7.346;2023-11-19T14:39:15;10.32;;;1.55;;
81544;SDS011;70990;50.618;7.346;2023-11-19T14:41:42;10.65;;;2.20;;
81544;SDS011;70990;50.618;7.346;2023-11-19T14:44:09;10.20;;;2.03;;
81544;SDS011;70990;50.618;7.346;2023-11-19T14:46:36;7.22;;;1.63;;
81544;SDS011;70990;50.618;7.346;2023-11-19T14:49:03;17.52;;;5.57;;
81544;SDS011;70990;50.618;7.346;2023-11-19T14:51:30;12.52;;;2.08;;
81544;SDS011;70990;50.618;7.346;2023-11-19T14:53:57;8.95;;;1.75;;
81544;SDS011;70990;50.618;7.346;2023-11-19T14:56:23;11.48;;;1.35;;
81544;SDS011;70990;50.618;7.346;2023-11-19T14:58:50;13.23;;;2.72;;
81544;SDS011;70990;50.618;7.346;2023-11-19T15:01:16;8.52;;;1.52;;
81544;SDS011;70990;50.618;7.346;2023-11-19T15:03:44;6.88;;;1.65;;
81544;SDS011;70990;50.618;7.346;2023-11-19T15:06:14;6.20;;;0.98;;
81544;SDS011;70990;50.618;7.346;2023-11-19T15:08:40;8.77;;;1.30;;
81544;SDS011;70990;50.618;7.346;2023-11-19T15:11:07;8.52;;;1.77;;
81544;SDS011;70990;50.618;7.346;2023-11-19T15:13:34;5.20;;;1.10;;
81544;SDS011;70990;50.618;7.346;2023-11-19T15:16:01;4.95;;;1.23;;